Time;durP1;ratioP1;P1;durP2;ratioP2;P2;SDS_P1;SDS_P2;PMS_P1;PMS_P2;Temp;Humidity;BMP_temperature;BMP_pressure;BME280_temperature;BME280_humidity;BME280_pressure;Samples;Min_cycle;Max_cycle;Signal;HPM_P1;HPM_P2
2021/03/24 00:00:50;;;;;;;47.67;30.27;;;6.60;79.50;;;;;;5071220;28;20050;-49
2021/03/24 00:03:16;;;;;;;51.72;31.13;;;6.60;79.50;;;;;;5055577;28;20067;-48
2021/03/24 00:05:45;;;;;;;52.78;31.70;;;6.50;79.70;;;;;;5055135;28;20028;-49
2021/03/24 00:08:11;;;;;;;53.65;32.25;;;6.40;80.00;;;;;;5054566;28;20024;-47
2021/03/24 00:10:38;;;;;;;52.88;31.65;;;6.50;79.80;;;;;;5073045;28;20029;-51
2021/03/24 00:13:05;;;;;;;48.63;31.02;;;6.50;79.90;;;;;;5073256;28;20032;-52
2021/03/24 00:15:31;;;;;;;51.20;32.20;;;6.40;80.30;;;;;;5072966;28;20499;-50
2021/03/24 00:17:57;;;;;;;50.17;31.58;;;6.40;80.10;;;;;;5072287;28;20024;-53
2021/03/24 00:20:27;;;;;;;52.40;33.55;;;6.50;80.60;;;;;;5054734;28;20047;-56
2021/03/24 00:22:53;;;;;;;54.15;32.63;;;6.40;80.50;;;;;;5072715;28;20032;-49
2021/03/24 00:25:20;;;;;;;51.75;32.55;;;6.30;80.80;;;;;;5061187;28;20091;-51
2021/03/24 00:27:49;;;;;;;52.15;31.35;;;6.40;80.40;;;;;;5052767;28;20087;-49
2021/03/24 00:30:17;;;;;;;53.85;31.33;;;6.30;80.80;;;;;;5067906;28;20094;-47
2021/03/24 00:32:43;;;;;;;54.53;32.80;;;6.20;81.20;;;;;;5072798;28;20117;-48
2021/03/24 00:35:10;;;;;;;54.47;31.63;;;6.20;81.20;;;;;;5054500;28;20124;-51
2021/03/24 00:37:36;;;;;;;54.28;32.40;;;6.20;81.10;;;;;;5054775;28;20043;-48
2021/03/24 00:40:04;;;;;;;53.63;32.17;;;6.20;81.20;;;;;;5073113;28;20040;-51
2021/03/24 00:42:29;;;;;;;54.97;32.95;;;6.30;80.90;;;;;;5056375;28;20043;-49
2021/03/24 00:44:55;;;;;;;53.83;32.60;;;6.30;81.30;;;;;;5074179;28;20028;-55
2021/03/24 00:47:21;;;;;;;54.40;33.63;;;6.30;81.10;;;;;;5076422;28;20519;-58
2021/03/24 00:49:46;;;;;;;54.40;32.50;;;6.30;80.90;;;;;;5072571;28;20644;-56
2021/03/24 00:52:12;;;;;;;54.45;33.42;;;6.10;81.90;;;;;;5072778;28;20040;-55
2021/03/24 00:54:37;;;;;;;53.60;32.47;;;6.10;82.10;;;;;;5072471;28;20369;-56
2021/03/24 00:57:03;;;;;;;53.53;32.20;;;6.10;82.50;;;;;;5072835;28;20064;-56
2021/03/24 00:59:29;;;;;;;53.53;31.83;;;6.20;82.20;;;;;;5053883;28;20040;-53
2021/03/24 01:01:54;;;;;;;56.42;33.65;;;6.20;82.10;;;;;;5061213;28;20643;-55
2021/03/24 01:04:20;;;;;;;58.22;34.78;;;6.10;82.40;;;;;;5072284;28;20484;-53
2021/03/24 01:06:45;;;;;;;56.55;32.53;;;6.10;82.50;;;;;;5072213;28;20467;-52
2021/03/24 01:09:11;;;;;;;54.65;32.85;;;6.20;82.40;;;;;;5047665;28;20032;-56
2021/03/24 01:11:39;;;;;;;59.90;34.40;;;6.20;82.10;;;;;;5063651;28;20060;-55
2021/03/24 01:14:06;;;;;;;55.15;34.28;;;6.10;82.70;;;;;;5061021;28;20479;-55
2021/03/24 01:16:32;;;;;;;55.60;32.88;;;6.00;83.00;;;;;;5073093;28;20051;-56
2021/03/24 01:18:58;;;;;;;55.72;32.72;;;6.10;83.00;;;;;;5071921;28;20036;-55
2021/03/24 01:21:24;;;;;;;56.38;33.80;;;6.00;83.40;;;;;;5065155;28;20491;-53
2021/03/24 01:23:49;;;;;;;54.50;33.25;;;6.00;83.30;;;;;;5055764;28;20116;-57
2021/03/24 01:26:16;;;;;;;55.35;32.40;;;6.00;83.50;;;;;;5069610;28;20035;-57
2021/03/24 01:28:42;;;;;;;56.95;32.75;;;6.00;83.70;;;;;;5060473;28;20377;-56
2021/03/24 01:31:07;;;;;;;61.08;34.53;;;6.00;83.60;;;;;;5062865;28;20063;-53
2021/03/24 01:33:33;;;;;;;61.42;33.38;;;6.00;83.70;;;;;;5063288;28;20387;-56
2021/03/24 01:35:59;;;;;;;58.90;32.35;;;6.20;83.10;;;;;;5064662;28;20028;-56
2021/03/24 01:38:24;;;;;;;56.95;33.70;;;6.10;83.60;;;;;;5053301;28;20028;-53
2021/03/24 01:40:57;;;;;;;58.25;34.08;;;6.20;83.40;;;;;;5065713;28;20088;-53
2021/03/24 01:43:35;;;;;;;57.33;34.17;;;6.20;83.20;;;;;;5071577;28;20036;-55
2021/03/24 01:46:24;;;;;;;61.30;34.15;;;6.20;83.00;;;;;;5071501;28;20040;-55
2021/03/24 01:48:58;;;;;;;55.63;32.42;;;6.20;83.20;;;;;;5064645;28;20044;-57
2021/03/24 01:51:53;;;;;;;57.90;32.58;;;6.20;83.30;;;;;;5058280;28;20036;-57
2021/03/24 01:54:32;;;;;;;59.17;35.67;;;6.30;83.10;;;;;;5045356;28;20044;-50
2021/03/24 01:57:03;;;;;;;61.65;34.05;;;6.20;83.40;;;;;;5063180;28;20029;-51
2021/03/24 01:59:29;;;;;;;58.63;33.35;;;6.10;83.70;;;;;;5062265;28;20400;-55
2021/03/24 02:01:57;;;;;;;55.25;34.63;;;6.10;84.10;;;;;;5063541;28;20025;-52
2021/03/24 02:04:26;;;;;;;57.78;35.30;;;6.10;83.60;;;;;;5028160;28;20040;-51
2021/03/24 02:07:14;;;;;;;57.92;34.47;;;6.20;84.00;;;;;;5064989;28;20028;-52
2021/03/24 02:09:53;;;;;;;56.40;33.15;;;6.10;83.80;;;;;;5067770;28;20051;-53
2021/03/24 02:12:21;;;;;;;58.85;33.95;;;6.20;83.90;;;;;;5052129;28;20047;-50
2021/03/24 02:15:04;;;;;;;58.90;34.80;;;6.10;84.00;;;;;;5063813;28;20124;-50
2021/03/24 02:17:34;;;;;;;60.05;34.80;;;6.10;83.90;;;;;;5057904;28;20076;-51
2021/03/24 02:20:03;;;;;;;70.95;36.45;;;6.20;83.20;;;;;;5064515;28;20033;-54
2021/03/24 02:22:33;;;;;;;55.83;34.95;;;6.10;83.80;;;;;;5041011;28;20480;-51
2021/03/24 02:25:03;;;;;;;61.20;34.45;;;6.10;83.70;;;;;;5068553;28;20025;-53
2021/03/24 02:27:40;;;;;;;60.00;34.40;;;6.10;83.70;;;;;;5069590;28;20036;-49
2021/03/24 02:30:14;;;;;;;62.63;35.28;;;6.00;84.00;;;;;;5070936;28;20044;-50
2021/03/24 02:32:45;;;;;;;61.72;36.03;;;6.00;84.30;;;;;;5069387;28;20036;-52
2021/03/24 02:35:16;;;;;;;60.38;34.63;;;6.00;83.80;;;;;;5071059;28;20033;-50
2021/03/24 02:37:42;;;;;;;61.90;34.88;;;6.00;83.80;;;;;;5071210;28;20028;-50
2021/03/24 02:40:12;;;;;;;62.35;36.35;;;6.00;84.00;;;;;;5070967;28;20032;-48
2021/03/24 02:42:41;;;;;;;61.47;35.80;;;6.00;83.60;;;;;;5095263;28;20154;-50
2021/03/24 02:45:09;;;;;;;65.80;36.28;;;6.00;83.40;;;;;;5081309;28;20527;-49
2021/03/24 02:47:35;;;;;;;61.13;35.58;;;6.00;83.60;;;;;;5075076;28;20107;-54
2021/03/24 02:50:01;;;;;;;65.20;36.33;;;6.00;83.50;;;;;;5074404;28;20115;-52
2021/03/24 02:52:27;;;;;;;60.70;35.95;;;5.90;84.00;;;;;;5074356;28;20039;-49
2021/03/24 02:54:54;;;;;;;62.88;36.58;;;5.90;84.00;;;;;;5054763;28;20036;-48
2021/03/24 02:57:20;;;;;;;64.50;37.78;;;6.00;83.50;;;;;;5074979;28;20028;-51
2021/03/24 02:59:46;;;;;;;65.07;35.75;;;6.00;83.50;;;;;;5074619;28;20048;-47
2021/03/24 03:02:18;;;;;;;60.15;36.08;;;6.10;83.30;;;;;;5074862;28;20039;-48
2021/03/24 03:04:59;;;;;;;65.57;34.88;;;6.10;83.10;;;;;;5058199;28;20041;-51
2021/03/24 03:07:32;;;;;;;64.80;36.72;;;6.10;83.10;;;;;;5077918;28;20018;-49
2021/03/24 03:10:08;;;;;;;67.53;37.08;;;6.00;83.40;;;;;;5074823;28;20032;-55
2021/03/24 03:12:49;;;;;;;60.60;35.72;;;6.10;83.30;;;;;;5076653;28;20446;-57
2021/03/24 03:15:31;;;;;;;63.83;36.88;;;6.10;83.00;;;;;;5082769;28;20387;-54
2021/03/24 03:18:23;;;;;;;60.05;34.78;;;6.10;83.00;;;;;;5074595;28;20075;-51
2021/03/24 03:20:54;;;;;;;64.05;36.80;;;6.20;83.00;;;;;;5074190;28;20025;-55
2021/03/24 03:23:21;;;;;;;59.65;34.55;;;6.20;82.60;;;;;;5074663;28;20040;-55
2021/03/24 03:26:12;;;;;;;62.95;36.53;;;6.10;82.90;;;;;;5073066;28;20044;-54
2021/03/24 03:28:41;;;;;;;61.17;34.90;;;5.90;83.70;;;;;;5074320;28;20079;-56
2021/03/24 03:31:13;;;;;;;64.32;36.30;;;5.90;83.80;;;;;;5074000;28;20032;-54
2021/03/24 03:33:43;;;;;;;64.43;37.00;;;5.90;83.70;;;;;;5074156;28;20569;-53
2021/03/24 03:36:12;;;;;;;61.67;36.70;;;5.90;83.20;;;;;;5069997;28;20025;-52
2021/03/24 03:38:38;;;;;;;60.78;34.20;;;6.00;82.90;;;;;;5052881;28;20056;-55
2021/03/24 03:41:06;;;;;;;63.80;38.03;;;5.80;83.30;;;;;;5068846;28;20037;-52
2021/03/24 03:43:34;;;;;;;66.03;37.35;;;5.60;84.20;;;;;;5047997;28;20040;-56
2021/03/24 03:46:02;;;;;;;68.63;36.40;;;5.50;84.90;;;;;;5081036;28;20036;-55
2021/03/24 03:48:28;;;;;;;64.30;35.72;;;5.40;85.10;;;;;;5094331;28;20024;-55
2021/03/24 03:51:02;;;;;;;64.72;37.58;;;5.50;85.20;;;;;;5082009;28;20037;-51
2021/03/24 03:53:43;;;;;;;65.45;34.90;;;5.50;84.40;;;;;;5072348;28;20029;-54
2021/03/24 03:56:17;;;;;;;64.05;35.53;;;5.70;84.00;;;;;;5072973;28;20028;-52
2021/03/24 03:58:59;;;;;;;62.15;37.22;;;5.70;83.70;;;;;;5073785;28;20028;-56
2021/03/24 04:01:30;;;;;;;66.45;37.13;;;5.80;83.10;;;;;;5073763;28;20115;-56
2021/03/24 04:03:58;;;;;;;68.47;38.38;;;5.80;83.50;;;;;;5073999;28;20033;-52
2021/03/24 04:06:46;;;;;;;65.07;36.83;;;5.70;83.80;;;;;;5073505;28;20116;-53
2021/03/24 04:09:13;;;;;;;67.28;38.33;;;5.50;84.50;;;;;;5024068;28;20068;-53
2021/03/24 04:11:45;;;;;;;65.18;36.30;;;5.60;84.30;;;;;;5073113;28;20094;-51
2021/03/24 04:14:15;;;;;;;67.10;39.33;;;5.60;84.00;;;;;;5093755;28;20028;-53
2021/03/24 04:16:42;;;;;;;63.38;37.45;;;5.60;83.90;;;;;;5059968;28;20036;-49
2021/03/24 04:19:10;;;;;;;72.28;39.15;;;5.60;84.00;;;;;;5073653;28;20111;-56
2021/03/24 04:21:40;;;;;;;64.88;36.38;;;5.70;83.50;;;;;;5073627;28;20051;-55
2021/03/24 04:24:41;;;;;;;64.72;36.90;;;5.90;83.20;;;;;;5073650;28;20021;-58
2021/03/24 04:27:09;;;;;;;63.50;37.47;;;5.80;83.30;;;;;;5040327;28;20079;-52
2021/03/24 04:29:40;;;;;;;68.75;37.85;;;5.90;83.20;;;;;;5073140;28;20060;-52
2021/03/24 04:32:09;;;;;;;68.32;38.65;;;5.90;83.20;;;;;;5075936;28;20117;-58
2021/03/24 04:34:35;;;;;;;61.67;36.67;;;6.00;83.00;;;;;;5073196;28;20028;-55
2021/03/24 04:37:06;;;;;;;67.53;38.53;;;6.00;82.50;;;;;;5072678;28;20078;-53
2021/03/24 04:39:40;;;;;;;65.72;36.30;;;5.90;82.80;;;;;;5072565;28;20033;-52
2021/03/24 04:42:20;;;;;;;63.38;36.97;;;5.90;82.80;;;;;;5072790;28;20090;-53
2021/03/24 04:44:50;;;;;;;66.25;37.03;;;5.90;82.90;;;;;;5093004;28;20024;-54
2021/03/24 04:47:21;;;;;;;62.80;36.92;;;5.90;82.80;;;;;;5058440;28;20036;-55
2021/03/24 04:50:07;;;;;;;62.85;36.38;;;5.90;82.30;;;;;;5072292;28;20055;-54
2021/03/24 04:52:35;;;;;;;70.53;37.70;;;6.00;81.80;;;;;;5071705;28;20067;-57
2021/03/24 04:55:08;;;;;;;65.18;36.58;;;5.90;82.00;;;;;;5072113;28;20036;-54
2021/03/24 04:57:35;;;;;;;64.68;36.42;;;5.80;82.70;;;;;;5054265;28;20032;-54
2021/03/24 05:00:28;;;;;;;62.95;36.60;;;5.70;82.70;;;;;;5072439;28;20388;-53
2021/03/24 05:03:00;;;;;;;67.75;37.95;;;5.60;83.00;;;;;;5059084;28;20037;-54
2021/03/24 05:05:30;;;;;;;69.93;38.20;;;5.50;84.00;;;;;;5071275;28;20467;-53
2021/03/24 05:08:33;;;;;;;72.90;40.10;;;5.60;83.60;;;;;;5071964;28;20033;-51
2021/03/24 05:11:17;;;;;;;66.00;38.05;;;5.50;84.00;;;;;;5071126;28;20025;-53
2021/03/24 05:13:52;;;;;;;67.43;37.57;;;5.40;84.20;;;;;;5072188;28;20040;-54
2021/03/24 05:16:28;;;;;;;64.25;38.55;;;5.50;83.30;;;;;;5072415;28;20273;-56
2021/03/24 05:18:56;;;;;;;74.80;38.95;;;5.40;83.80;;;;;;5071493;28;20024;-54
2021/03/24 05:21:46;;;;;;;70.88;41.10;;;5.50;83.40;;;;;;5071730;28;20127;-55
2021/03/24 05:24:14;;;;;;;65.82;37.78;;;5.60;82.90;;;;;;5069361;28;20040;-56
2021/03/24 05:26:44;;;;;;;64.68;37.78;;;5.70;82.70;;;;;;5034585;28;20059;-51
2021/03/24 05:29:17;;;;;;;64.68;37.92;;;5.60;83.00;;;;;;5064967;28;20124;-56
2021/03/24 05:31:47;;;;;;;64.22;37.25;;;5.70;82.20;;;;;;5071776;28;20036;-54
2021/03/24 05:34:17;;;;;;;64.95;39.13;;;5.50;82.90;;;;;;5072084;28;20032;-56
2021/03/24 05:36:46;;;;;;;68.25;36.65;;;5.60;82.90;;;;;;5071722;28;20514;-53
2021/03/24 05:39:28;;;;;;;69.35;39.42;;;5.60;82.70;;;;;;5053013;28;20053;-53
2021/03/24 05:42:05;;;;;;;65.70;36.42;;;5.60;82.80;;;;;;5071392;28;20104;-53
2021/03/24 05:45:00;;;;;;;69.28;37.80;;;5.70;82.30;;;;;;5071377;28;20029;-55
2021/03/24 05:48:04;;;;;;;64.13;35.95;;;5.70;82.10;;;;;;5071356;28;20131;-53
2021/03/24 05:51:11;;;;;;;66.65;38.10;;;5.80;81.90;;;;;;5071598;28;20025;-55
2021/03/24 05:53:55;;;;;;;67.57;38.35;;;5.70;82.60;;;;;;5071071;28;20144;-59
2021/03/24 05:56:42;;;;;;;68.35;37.97;;;5.70;82.70;;;;;;5071527;28;20174;-55
2021/03/24 05:59:24;;;;;;;65.43;38.08;;;5.60;83.10;;;;;;5052802;28;20668;-55
2021/03/24 06:02:20;;;;;;;70.53;39.50;;;5.60;82.90;;;;;;5071644;28;20033;-57
2021/03/24 06:04:58;;;;;;;66.50;38.88;;;5.60;82.60;;;;;;5071116;28;20040;-57
2021/03/24 06:07:57;;;;;;;66.57;38.13;;;5.50;83.30;;;;;;5070778;28;20036;-57
2021/03/24 06:10:43;;;;;;;67.63;37.30;;;5.60;83.00;;;;;;5050980;28;20134;-53
2021/03/24 06:13:46;;;;;;;71.35;37.83;;;5.70;82.60;;;;;;5055089;28;20545;-53
2021/03/24 06:16:30;;;;;;;66.15;38.53;;;5.80;82.80;;;;;;5074568;28;20063;-56
2021/03/24 06:19:04;;;;;;;66.13;38.63;;;5.70;82.70;;;;;;5077141;28;20037;-54
2021/03/24 06:21:41;;;;;;;71.38;39.05;;;5.80;82.80;;;;;;5077530;28;20032;-53
2021/03/24 06:24:29;;;;;;;68.38;37.58;;;5.70;83.20;;;;;;5075657;28;20036;-51
2021/03/24 06:27:09;;;;;;;70.20;39.20;;;5.70;83.00;;;;;;5077885;28;20032;-54
2021/03/24 06:30:05;;;;;;;64.78;37.28;;;5.80;82.40;;;;;;5077172;28;20032;-55
2021/03/24 06:33:06;;;;;;;73.10;41.25;;;5.80;82.50;;;;;;5077508;28;20519;-53
2021/03/24 06:35:56;;;;;;;67.47;38.05;;;5.90;82.80;;;;;;5039201;28;20057;-50
2021/03/24 06:38:55;;;;;;;65.10;38.75;;;5.80;83.00;;;;;;5076604;28;20082;-51
2021/03/24 06:41:26;;;;;;;66.55;38.92;;;5.90;82.90;;;;;;5077496;28;20036;-47
2021/03/24 06:44:25;;;;;;;69.22;39.33;;;5.70;83.90;;;;;;5077392;28;20024;-51
2021/03/24 06:47:18;;;;;;;64.93;37.53;;;5.70;84.30;;;;;;5078103;28;20429;-56
2021/03/24 06:50:11;;;;;;;68.57;37.67;;;5.70;84.20;;;;;;5077350;28;20390;-53
2021/03/24 06:52:56;;;;;;;65.07;38.17;;;5.90;83.70;;;;;;5059693;28;20070;-50
2021/03/24 06:55:36;;;;;;;69.05;37.83;;;6.10;82.40;;;;;;5077281;28;20708;-55
2021/03/24 06:58:35;;;;;;;72.55;40.13;;;6.10;82.80;;;;;;5059879;28;20060;-57
2021/03/24 07:01:18;;;;;;;69.95;38.85;;;6.20;82.30;;;;;;5057479;28;20037;-50
2021/03/24 07:03:53;;;;;;;72.50;40.53;;;6.40;82.00;;;;;;5060061;28;20118;-53
2021/03/24 07:06:27;;;;;;;;;;;6.20;82.20;;;;;;5060163;28;20037;-50
2021/03/24 07:09:24;;;;;;;75.40;40.72;;;6.20;82.90;;;;;;5077111;28;19927;-51
2021/03/24 07:11:49;;;;;;;64.50;37.58;;;6.30;82.30;;;;;;5077370;28;20028;-51
2021/03/24 07:14:29;;;;;;;61.47;37.67;;;6.40;81.80;;;;;;5059072;28;20590;-51
2021/03/24 07:17:02;;;;;;;71.05;39.30;;;6.50;81.60;;;;;;5076779;28;20487;-51
2021/03/24 07:19:55;;;;;;;67.45;40.03;;;6.60;80.90;;;;;;5076488;28;20025;-47
2021/03/24 07:22:44;;;;;;;68.03;38.92;;;6.70;80.60;;;;;;5058513;28;20039;-51
2021/03/24 07:25:28;;;;;;;72.93;39.38;;;6.80;80.50;;;;;;5066845;28;20432;-47
2021/03/24 07:28:07;;;;;;;73.43;39.80;;;7.00;78.90;;;;;;5066477;28;20519;-47
2021/03/24 07:31:01;;;;;;;65.22;38.75;;;7.00;79.00;;;;;;5073774;28;20036;-51
2021/03/24 07:33:49;;;;;;;68.93;38.97;;;7.00;79.00;;;;;;5067087;28;20082;-47
2021/03/24 07:36:34;;;;;;;70.78;38.38;;;7.10;78.80;;;;;;5073927;28;20507;-54
2021/03/24 07:39:50;;;;;;;67.88;40.50;;;7.00;78.50;;;;;;5073349;28;20031;-54
2021/03/24 07:42:47;;;;;;;65.90;38.63;;;6.90;79.00;;;;;;5056386;28;20040;-54
2021/03/24 07:45:33;;;;;;;67.10;39.03;;;7.10;78.80;;;;;;5075001;28;20043;-58
2021/03/24 07:48:20;;;;;;;64.90;39.03;;;7.20;78.30;;;;;;5075214;28;20024;-58
2021/03/24 07:51:07;;;;;;;62.08;38.65;;;7.20;78.10;;;;;;5074467;28;20040;-58
2021/03/24 07:53:55;;;;;;;71.65;37.85;;;7.50;77.70;;;;;;5073644;28;20035;-58
2021/03/24 07:56:43;;;;;;;69.07;40.88;;;7.80;76.80;;;;;;5072118;28;20491;-58
2021/03/24 07:59:36;;;;;;;61.95;38.72;;;7.50;77.40;;;;;;5053074;28;20761;-58
2021/03/24 08:02:23;;;;;;;68.10;38.83;;;7.40;77.30;;;;;;5063929;28;20040;-58
2021/03/24 08:05:17;;;;;;;61.08;37.65;;;7.50;77.40;;;;;;5052380;28;20105;-57
2021/03/24 08:08:06;;;;;;;65.90;38.72;;;7.40;78.10;;;;;;5056454;28;20154;-56
2021/03/24 08:10:49;;;;;;;65.85;40.35;;;7.40;78.10;;;;;;5056794;28;20020;-54
2021/03/24 08:13:53;;;;;;;64.28;39.97;;;7.60;78.00;;;;;;5055953;28;20033;-53
2021/03/24 08:16:50;;;;;;;63.33;38.63;;;7.70;77.50;;;;;;5076395;28;20130;-59
2021/03/24 08:19:18;;;;;;;61.85;39.03;;;7.70;77.80;;;;;;5073379;28;20035;-57
2021/03/24 08:22:00;;;;;;;64.82;40.10;;;7.80;77.40;;;;;;5054771;28;20110;-58
2021/03/24 08:24:51;;;;;;;67.75;41.15;;;7.80;77.60;;;;;;5069032;28;20036;-58
2021/03/24 08:27:42;;;;;;;66.20;40.28;;;7.80;77.50;;;;;;5065053;28;20021;-56
2021/03/24 08:30:36;;;;;;;69.32;39.80;;;7.70;78.00;;;;;;5062990;28;20032;-55
2021/03/24 08:33:22;;;;;;;68.53;40.95;;;7.60;78.60;;;;;;5072510;28;20071;-57
2021/03/24 08:36:18;;;;;;;66.43;39.83;;;7.90;78.00;;;;;;5072315;28;20071;-57
2021/03/24 08:39:12;;;;;;;65.85;40.35;;;7.90;78.00;;;;;;5072005;28;20028;-58
2021/03/24 08:41:52;;;;;;;63.47;40.13;;;8.10;77.20;;;;;;5072289;28;20507;-58
2021/03/24 08:44:25;;;;;;;76.38;42.40;;;8.40;76.40;;;;;;5071774;28;20032;-55
2021/03/24 08:47:01;;;;;;;62.38;39.60;;;8.50;75.90;;;;;;5079368;28;20068;-56
2021/03/24 08:49:38;;;;;;;72.82;42.00;;;8.60;75.30;;;;;;5024459;28;20037;-54
2021/03/24 08:52:17;;;;;;;66.70;41.25;;;8.50;75.80;;;;;;5060212;28;20032;-56
2021/03/24 08:55:22;;;;;;;61.97;40.35;;;8.70;75.50;;;;;;5052320;28;20106;-58
2021/03/24 08:58:13;;;;;;;70.40;43.15;;;8.80;75.40;;;;;;5002992;28;20452;-59
2021/03/24 09:00:58;;;;;;;64.82;41.22;;;8.90;74.90;;;;;;5071241;28;20049;-59
2021/03/24 09:03:37;;;;;;;62.78;40.22;;;9.20;74.50;;;;;;5068166;28;20082;-57
2021/03/24 09:06:25;;;;;;;66.50;42.53;;;9.40;73.50;;;;;;5069258;28;20095;-59
2021/03/24 09:09:02;;;;;;;68.97;42.78;;;9.70;72.20;;;;;;5071207;28;20039;-59
2021/03/24 09:11:46;;;;;;;66.78;43.35;;;9.80;71.20;;;;;;5054541;28;20488;-57
2021/03/24 09:14:17;;;;;;;65.47;41.92;;;9.40;72.40;;;;;;5068599;28;20170;-58
2021/03/24 09:16:58;;;;;;;69.45;42.67;;;9.30;72.70;;;;;;5071822;28;20024;-55
2021/03/24 09:19:42;;;;;;;66.47;41.53;;;9.20;73.00;;;;;;5070661;28;20078;-57
2021/03/24 09:22:38;;;;;;;71.80;41.93;;;9.40;72.80;;;;;;5071529;28;20044;-56
2021/03/24 09:25:35;;;;;;;62.65;41.38;;;9.50;72.70;;;;;;5061258;28;20072;-59
2021/03/24 09:28:16;;;;;;;69.13;43.78;;;9.60;72.50;;;;;;5070703;28;20036;-57
2021/03/24 09:30:41;;;;;;;65.93;42.15;;;9.60;72.30;;;;;;5066285;28;20033;-54
2021/03/24 09:33:53;;;;;;;64.65;41.88;;;9.60;72.10;;;;;;5071063;28;20379;-56
2021/03/24 09:36:36;;;;;;;64.38;42.22;;;9.80;71.70;;;;;;5031686;28;20037;-58
2021/03/24 09:39:17;;;;;;;64.95;44.30;;;10.00;70.30;;;;;;5043070;28;20106;-59
2021/03/24 09:41:42;;;;;;;65.00;41.63;;;10.00;70.60;;;;;;5071713;28;20499;-58
2021/03/24 09:44:15;;;;;;;70.03;43.72;;;10.10;70.60;;;;;;5070696;28;20060;-54
2021/03/24 09:46:53;;;;;;;67.70;42.20;;;10.10;70.60;;;;;;5084561;28;20092;-58
2021/03/24 09:49:28;;;;;;;81.50;42.40;;;10.00;71.10;;;;;;5070416;28;20090;-58
2021/03/24 09:52:41;;;;;;;65.80;43.08;;;10.20;70.50;;;;;;5069948;28;20033;-58
2021/03/24 09:55:23;;;;;;;62.83;41.67;;;10.20;70.00;;;;;;5041182;28;20037;-56
2021/03/24 09:58:21;;;;;;;66.05;41.45;;;10.10;70.30;;;;;;5071003;28;20040;-57
2021/03/24 10:01:11;;;;;;;68.85;42.53;;;10.00;71.00;;;;;;5001153;28;20391;-55
2021/03/24 10:03:42;;;;;;;61.10;39.85;;;10.20;70.30;;;;;;5069463;28;20108;-57
2021/03/24 10:06:24;;;;;;;67.07;43.25;;;10.00;70.50;;;;;;5070569;28;20082;-57
2021/03/24 10:09:18;;;;;;;61.22;42.08;;;10.10;70.60;;;;;;5070775;28;20060;-53
2021/03/24 10:12:06;;;;;;;60.03;41.40;;;10.10;70.80;;;;;;5038840;28;20177;-58
2021/03/24 10:15:02;;;;;;;68.93;43.53;;;10.20;70.10;;;;;;5091259;28;20107;-56
2021/03/24 10:17:32;;;;;;;62.53;40.03;;;10.30;70.10;;;;;;5071158;28;20048;-57
2021/03/24 10:20:05;;;;;;;62.70;41.08;;;10.40;69.70;;;;;;5060421;28;20036;-54
2021/03/24 10:22:42;;;;;;;66.45;41.28;;;10.50;68.90;;;;;;5062556;28;20024;-55
2021/03/24 10:25:21;;;;;;;59.10;40.13;;;10.70;68.20;;;;;;5047061;28;20021;-58
2021/03/24 10:27:50;;;;;;;66.80;43.63;;;10.60;68.40;;;;;;5062199;28;20031;-56
2021/03/24 10:30:15;;;;;;;63.60;41.40;;;10.60;68.40;;;;;;5060388;28;20017;-55
2021/03/24 10:32:56;;;;;;;66.15;40.20;;;10.60;68.90;;;;;;5061611;28;20052;-58
2021/03/24 10:35:35;;;;;;;64.18;42.63;;;10.70;68.50;;;;;;5045540;28;20466;-54
2021/03/24 10:38:25;;;;;;;63.55;41.15;;;10.70;67.90;;;;;;5061697;28;20489;-57
2021/03/24 10:41:13;;;;;;;59.85;41.85;;;10.70;67.10;;;;;;5060826;28;20104;-55
2021/03/24 10:43:52;;;;;;;64.82;43.13;;;10.60;67.50;;;;;;5061783;28;20017;-54
2021/03/24 10:46:24;;;;;;;61.42;42.17;;;10.60;67.50;;;;;;5060775;28;20124;-58
2021/03/24 10:48:52;;;;;;;64.43;42.15;;;10.80;67.90;;;;;;5060867;28;20025;-55
2021/03/24 10:51:26;;;;;;;66.63;43.95;;;10.80;67.40;;;;;;5064825;28;20111;-56
2021/03/24 10:54:03;;;;;;;61.25;41.85;;;10.70;67.70;;;;;;5065062;28;20017;-58
2021/03/24 10:56:59;;;;;;;63.60;41.58;;;10.90;67.50;;;;;;5064811;28;20118;-55
2021/03/24 10:59:34;;;;;;;67.72;42.00;;;11.00;66.60;;;;;;5061512;28;20033;-55
2021/03/24 11:02:20;;;;;;;;;;;10.80;67.20;;;;;;5068190;28;20029;-53
2021/03/24 11:05:20;;;;;;;62.15;41.20;;;11.00;66.10;;;;;;5046986;28;19909;-56
2021/03/24 11:08:00;;;;;;;65.13;39.53;;;10.90;66.50;;;;;;5070341;28;20522;-61
2021/03/24 11:10:59;;;;;;;65.22;42.42;;;10.80;66.10;;;;;;5071169;28;20037;-57
2021/03/24 11:13:51;;;;;;;65.22;42.03;;;10.90;66.60;;;;;;5074014;28;20024;-58
2021/03/24 11:16:24;;;;;;;62.50;40.88;;;11.10;66.20;;;;;;5054712;28;20043;-51
2021/03/24 11:18:53;;;;;;;63.67;41.25;;;11.10;65.90;;;;;;5063373;28;20033;-49
2021/03/24 11:21:41;;;;;;;61.28;39.35;;;11.30;65.30;;;;;;5072091;28;20088;-52
2021/03/24 11:24:18;;;;;;;66.25;43.03;;;11.40;65.30;;;;;;5058534;28;20040;-50
2021/03/24 11:26:49;;;;;;;57.50;41.92;;;11.50;65.20;;;;;;5069253;28;20439;-49
2021/03/24 11:29:20;;;;;;;60.28;41.13;;;11.50;64.50;;;;;;5070984;28;20491;-52
2021/03/24 11:31:51;;;;;;;58.70;41.08;;;11.60;64.20;;;;;;5071512;28;20104;-54
2021/03/24 11:34:42;;;;;;;60.03;40.40;;;11.80;64.00;;;;;;5073609;28;20054;-49
2021/03/24 11:37:39;;;;;;;59.60;40.03;;;11.90;64.00;;;;;;5067597;28;20033;-49
2021/03/24 11:40:28;;;;;;;61.92;42.75;;;11.70;63.50;;;;;;5065575;28;20067;-53
2021/03/24 11:43:04;;;;;;;61.83;40.47;;;11.80;63.40;;;;;;5073895;28;20036;-52
2021/03/24 11:45:32;;;;;;;59.83;40.13;;;12.00;62.60;;;;;;5073349;28;20400;-54
2021/03/24 11:48:13;;;;;;;64.30;42.97;;;12.00;62.50;;;;;;5058645;28;20737;-52
2021/03/24 11:51:13;;;;;;;65.05;43.72;;;12.00;62.20;;;;;;5055362;28;20033;-50
2021/03/24 11:54:10;;;;;;;60.05;40.22;;;11.90;62.90;;;;;;5070170;28;20044;-52
2021/03/24 11:56:52;;;;;;;58.08;41.50;;;11.80;62.60;;;;;;5064340;28;20029;-54
2021/03/24 11:59:40;;;;;;;62.00;41.70;;;11.80;62.90;;;;;;5064586;28;20029;-48
2021/03/24 12:02:06;;;;;;;60.55;41.40;;;11.90;62.70;;;;;;5070822;28;20039;-49
2021/03/24 12:04:58;;;;;;;64.07;44.05;;;11.70;63.20;;;;;;5067359;28;20118;-54
2021/03/24 12:07:56;;;;;;;64.82;42.47;;;11.80;63.10;;;;;;5068313;28;20029;-48
2021/03/24 12:10:27;;;;;;;63.25;41.88;;;11.70;62.80;;;;;;5061244;28;20035;-49
2021/03/24 12:13:11;;;;;;;66.65;44.58;;;11.90;63.40;;;;;;5072266;28;20127;-52
2021/03/24 12:15:38;;;;;;;61.15;41.22;;;12.00;62.60;;;;;;5054589;28;20028;-52
2021/03/24 12:18:15;;;;;;;60.53;42.20;;;12.00;62.20;;;;;;5072500;28;20082;-53
2021/03/24 12:20:51;;;;;;;58.88;41.78;;;11.70;62.40;;;;;;5054464;28;20032;-49
2021/03/24 12:23:17;;;;;;;64.70;42.45;;;11.80;62.90;;;;;;5072615;28;20056;-49
2021/03/24 12:25:46;;;;;;;63.28;43.10;;;12.10;62.50;;;;;;5069495;28;20071;-54
2021/03/24 12:28:13;;;;;;;65.32;44.20;;;12.30;62.00;;;;;;5073330;28;20387;-49
2021/03/24 12:30:44;;;;;;;61.33;42.58;;;12.40;61.10;;;;;;5021720;28;20055;-50
2021/03/24 12:33:22;;;;;;;61.38;41.42;;;12.20;61.30;;;;;;5072093;28;20037;-53
2021/03/24 12:36:12;;;;;;;62.25;42.65;;;12.30;61.90;;;;;;5073561;28;20039;-54
2021/03/24 12:38:44;;;;;;;60.95;43.55;;;12.40;61.90;;;;;;5055034;28;20496;-49
2021/03/24 12:41:10;;;;;;;66.07;43.78;;;12.50;61.00;;;;;;5072667;28;20041;-53
2021/03/24 12:43:40;;;;;;;62.95;43.22;;;12.40;60.70;;;;;;5072312;28;20047;-52
2021/03/24 12:46:20;;;;;;;63.63;43.03;;;12.50;60.90;;;;;;5038722;28;20037;-54
2021/03/24 12:48:54;;;;;;;62.80;42.13;;;12.50;61.30;;;;;;5072444;28;20384;-51
2021/03/24 12:51:42;;;;;;;66.95;43.10;;;12.50;61.00;;;;;;5072554;28;20431;-53
2021/03/24 12:54:10;;;;;;;61.72;43.10;;;12.70;60.70;;;;;;5072352;28;20028;-52
2021/03/24 12:56:39;;;;;;;60.30;42.63;;;12.80;60.20;;;;;;5072200;28;20349;-53
2021/03/24 12:59:38;;;;;;;64.47;43.00;;;13.00;60.10;;;;;;5071669;28;20555;-50
2021/03/24 13:02:23;;;;;;;57.00;43.72;;;12.80;60.60;;;;;;5057852;28;20048;-57
2021/03/24 13:05:01;;;;;;;62.75;43.05;;;13.10;60.40;;;;;;5057538;28;20024;-53
2021/03/24 13:07:34;;;;;;;60.53;40.50;;;13.20;59.70;;;;;;5076362;28;20484;-52
2021/03/24 13:09:59;;;;;;;62.47;43.45;;;13.30;59.40;;;;;;5055269;28;20069;-55
2021/03/24 13:12:39;;;;;;;64.72;43.35;;;13.60;58.90;;;;;;5072761;28;20133;-47
2021/03/24 13:15:20;;;;;;;60.35;42.88;;;13.90;57.90;;;;;;5071466;28;20029;-51
2021/03/24 13:17:58;;;;;;;60.35;41.80;;;13.80;58.20;;;;;;5072029;28;20024;-50
2021/03/24 13:20:55;;;;;;;57.13;38.75;;;13.80;57.50;;;;;;5053696;28;20120;-55
2021/03/24 13:23:57;;;;;;;57.97;40.42;;;13.80;56.60;;;;;;5053569;28;20043;-48
2021/03/24 13:26:35;;;;;;;56.05;39.88;;;13.70;57.00;;;;;;5033560;28;20029;-50
2021/03/24 13:29:45;;;;;;;58.97;40.58;;;13.80;56.80;;;;;;5056973;28;20020;-49
2021/03/24 13:32:18;;;;;;;53.45;39.97;;;13.90;56.30;;;;;;5053730;28;20115;-49